createdAt,value
2023-01-30T00:01:32.741Z,82.83
2023-01-30T00:03:59.816Z,83.15
2023-01-30T00:06:27.018Z,83.05
2023-01-30T00:08:53.685Z,83.33
2023-01-30T00:11:20.991Z,83.25
2023-01-30T00:13:49.658Z,83.34
2023-01-30T00:16:19.486Z,83.10
2023-01-30T00:18:46.260Z,83.25
2023-01-30T00:21:17.342Z,83.44
2023-01-30T00:23:44.795Z,83.37
2023-01-30T00:26:12.446Z,83.49
2023-01-30T00:28:39.854Z,82.98
2023-01-30T00:31:07.085Z,83.76
2023-01-30T00:33:33.701Z,83.46
2023-01-30T00:36:05.557Z,83.55
2023-01-30T00:38:32.205Z,83.53
2023-01-30T00:40:58.829Z,83.47
2023-01-30T00:43:43.895Z,83.89
2023-01-30T00:46:44.829Z,83.90
2023-01-30T00:49:11.554Z,83.86
2023-01-30T00:51:38.869Z,84.05
2023-01-30T00:54:05.472Z,83.79
2023-01-30T00:56:32.196Z,84.02
2023-01-30T00:58:58.748Z,84.07
2023-01-30T01:01:25.576Z,83.93
2023-01-30T01:03:54.522Z,84.06
2023-01-30T01:06:23.625Z,84.40
2023-01-30T01:08:50.211Z,84.20
2023-01-30T01:11:24.524Z,84.29
2023-01-30T01:13:53.775Z,84.56
2023-01-30T01:16:20.828Z,84.30
2023-01-30T01:18:50.193Z,84.57
2023-01-30T01:21:19.295Z,84.41
2023-01-30T01:23:59.054Z,84.60
2023-01-30T01:26:28.341Z,84.47
2023-01-30T01:28:57.062Z,84.52
2023-01-30T01:31:24.505Z,84.47
2023-01-30T01:33:51.792Z,84.67
2023-01-30T01:36:42.438Z,84.65
2023-01-30T01:39:06.410Z,84.35
2023-01-30T01:41:33.024Z,84.79
2023-01-30T01:44:04.138Z,84.80
2023-01-30T01:46:45.417Z,84.93
2023-01-30T01:49:21.657Z,85.41
2023-01-30T01:52:04.070Z,85.28
2023-01-30T01:54:48.033Z,85.15
2023-01-30T01:57:35.569Z,84.85
2023-01-30T02:00:12.559Z,84.94
2023-01-30T02:02:48.025Z,85.28
2023-01-30T02:05:17.764Z,85.19
2023-01-30T02:07:55.588Z,85.13
2023-01-30T02:10:33.543Z,85.43
2023-01-30T02:13:00.122Z,85.20
2023-01-30T02:15:26.768Z,85.38
2023-01-30T02:17:53.483Z,85.72
2023-01-30T02:20:56.756Z,85.49
2023-01-30T02:23:35.655Z,85.73
2023-01-30T02:26:32.466Z,85.61
2023-01-30T02:29:20.844Z,85.62
2023-01-30T02:31:56.309Z,85.70
2023-01-30T02:34:37.953Z,85.68
2023-01-30T02:37:22.222Z,85.81
2023-01-30T02:40:18.069Z,85.72
2023-01-30T02:42:57.148Z,85.84
2023-01-30T02:45:36.420Z,85.82
2023-01-30T02:48:23.412Z,86.06
2023-01-30T02:50:57.080Z,86.00
2023-01-30T02:53:24.038Z,86.19
2023-01-30T02:55:52.955Z,86.06
2023-01-30T02:58:24.040Z,86.20
2023-01-30T03:01:18.683Z,86.33
2023-01-30T03:04:06.362Z,86.33
2023-01-30T03:06:59.065Z,86.54
2023-01-30T03:09:45.349Z,86.27
2023-01-30T03:12:22.130Z,86.53
2023-01-30T03:14:59.268Z,86.67
2023-01-30T03:17:27.348Z,86.47
2023-01-30T03:19:57.390Z,87.11
2023-01-30T03:22:26.285Z,87.14
2023-01-30T03:24:54.559Z,87.10
2023-01-30T03:27:22.272Z,87.27
2023-01-30T03:29:51.116Z,87.34
2023-01-30T03:32:17.720Z,87.47
2023-01-30T03:34:44.309Z,87.38
2023-01-30T03:37:10.993Z,87.21
2023-01-30T03:39:37.636Z,87.48
2023-01-30T03:42:04.468Z,87.68
2023-01-30T03:44:31.152Z,87.84
2023-01-30T03:47:02.478Z,87.80
2023-01-30T03:49:29.085Z,87.76
2023-01-30T03:51:55.674Z,87.86
2023-01-30T03:54:24.509Z,88.04
2023-01-30T03:56:51.059Z,87.96
2023-01-30T03:59:17.662Z,88.06
2023-01-30T04:01:44.326Z,88.18
2023-01-30T04:04:10.948Z,87.87
2023-01-30T04:06:39.999Z,88.23
2023-01-30T04:09:06.523Z,87.83
2023-01-30T04:11:33.087Z,88.07
2023-01-30T04:13:59.666Z,88.40
2023-01-30T04:16:27.599Z,88.15
2023-01-30T04:18:54.336Z,88.21
2023-01-30T04:21:21.346Z,88.60
2023-01-30T04:23:48.042Z,88.57
2023-01-30T04:26:17.223Z,88.63
2023-01-30T04:28:44.663Z,88.84
2023-01-30T04:31:11.706Z,88.53
2023-01-30T04:33:39.986Z,88.54
2023-01-30T04:36:08.752Z,88.83
2023-01-30T04:38:36.211Z,88.73
2023-01-30T04:41:03.833Z,88.82
2023-01-30T04:43:31.319Z,88.95
2023-01-30T04:45:58.363Z,89.09
2023-01-30T04:48:25.932Z,89.27
2023-01-30T04:50:54.883Z,89.04
2023-01-30T04:53:24.159Z,88.93
2023-01-30T04:55:51.233Z,89.32
2023-01-30T04:58:20.764Z,89.32
2023-01-30T05:00:48.246Z,89.40
2023-01-30T05:03:15.418Z,89.39
2023-01-30T05:05:42.056Z,89.31
2023-01-30T05:08:11.332Z,89.35
2023-01-30T05:10:40.439Z,89.54
2023-01-30T05:13:07.340Z,89.69
2023-01-30T05:15:34.067Z,89.38
2023-01-30T05:18:03.141Z,89.50
2023-01-30T05:20:29.726Z,89.88
2023-01-30T05:22:58.697Z,90.36
2023-01-30T05:25:27.551Z,89.96
2023-01-30T05:27:54.111Z,90.78
2023-01-30T05:30:20.770Z,90.67
2023-01-30T05:32:47.361Z,90.83
2023-01-30T05:35:14.075Z,90.71
2023-01-30T05:37:42.848Z,90.57
2023-01-30T05:40:10.157Z,90.52
2023-01-30T05:42:36.723Z,90.50
2023-01-30T05:45:03.460Z,90.32
2023-01-30T05:47:32.994Z,90.33
2023-01-30T05:49:59.651Z,90.21
2023-01-30T05:52:26.289Z,90.15
2023-01-30T05:54:52.927Z,90.27
2023-01-30T05:57:19.552Z,89.91
2023-01-30T05:59:46.130Z,90.33
2023-01-30T06:02:12.740Z,90.13
2023-01-30T06:04:39.345Z,89.98
2023-01-30T06:07:06.011Z,90.00
2023-01-30T06:09:37.495Z,89.82
2023-01-30T06:12:04.280Z,89.97
2023-01-30T06:14:30.845Z,90.39
2023-01-30T06:16:57.518Z,90.28
2023-01-30T06:19:24.224Z,90.21
2023-01-30T06:21:50.863Z,90.22
2023-01-30T06:24:17.484Z,90.23
2023-01-30T06:26:46.418Z,90.45
2023-01-30T06:29:13.112Z,90.86
2023-01-30T06:31:42.110Z,90.61
2023-01-30T06:34:12.022Z,90.47
2023-01-30T06:36:38.582Z,90.66
2023-01-30T06:39:05.227Z,90.92
2023-01-30T06:41:31.982Z,91.01
2023-01-30T06:43:58.605Z,90.87
2023-01-30T06:46:25.382Z,90.56
2023-01-30T06:48:52.020Z,90.52
2023-01-30T06:51:20.836Z,90.50
2023-01-30T06:53:47.543Z,90.54
2023-01-30T06:56:14.130Z,90.42
2023-01-30T06:58:40.701Z,90.32
2023-01-30T07:01:07.295Z,89.92
2023-01-30T07:03:34.003Z,89.90
2023-01-30T07:06:02.980Z,89.63
2023-01-30T07:08:29.623Z,89.64
2023-01-30T07:10:56.221Z,89.44
2023-01-30T07:13:22.848Z,89.51
2023-01-30T07:15:49.385Z,89.70
2023-01-30T07:18:18.212Z,89.77
2023-01-30T07:20:48.970Z,89.38
2023-01-30T07:23:18.178Z,89.75
2023-01-30T07:25:44.924Z,89.67
2023-01-30T07:28:11.528Z,89.58
2023-01-30T07:30:38.221Z,89.96
2023-01-30T07:33:06.674Z,89.59
2023-01-30T07:35:36.442Z,89.55
2023-01-30T07:38:03.430Z,89.27
2023-01-30T07:40:29.975Z,89.16
2023-01-30T07:42:58.690Z,89.04
2023-01-30T07:45:26.557Z,88.79
2023-01-30T07:47:56.027Z,88.65
2023-01-30T07:50:22.850Z,88.70
2023-01-30T07:52:51.876Z,88.73
2023-01-30T07:55:18.818Z,88.43
2023-01-30T07:57:47.822Z,88.50
2023-01-30T08:00:15.058Z,88.22
2023-01-30T08:02:41.745Z,87.69
2023-01-30T08:05:08.812Z,87.42
2023-01-30T08:07:35.515Z,87.40
2023-01-30T08:10:02.202Z,86.97
2023-01-30T08:12:29.208Z,87.15
2023-01-30T08:14:55.985Z,86.94
2023-01-30T08:17:24.947Z,86.92
2023-01-30T08:19:51.623Z,86.68
2023-01-30T08:22:18.219Z,86.60
2023-01-30T08:24:44.820Z,86.89
2023-01-30T08:27:11.503Z,86.45
2023-01-30T08:29:38.149Z,86.33
2023-01-30T08:32:04.984Z,86.04
2023-01-30T08:34:31.928Z,85.96
2023-01-30T08:36:58.544Z,85.68
2023-01-30T08:39:25.122Z,85.77
2023-01-30T08:41:51.731Z,85.60
2023-01-30T08:44:18.649Z,85.60
2023-01-30T08:46:45.294Z,85.65
2023-01-30T08:49:12.133Z,85.22
2023-01-30T08:51:38.725Z,84.94
2023-01-30T08:54:07.640Z,84.87
2023-01-30T08:56:35.013Z,84.77
2023-01-30T08:59:01.963Z,84.81
2023-01-30T09:01:28.801Z,84.37
2023-01-30T09:03:57.483Z,84.13
2023-01-30T09:06:26.185Z,83.75
2023-01-30T09:08:52.942Z,83.76
2023-01-30T09:11:19.725Z,83.33
2023-01-30T09:13:49.783Z,82.99
2023-01-30T09:16:18.845Z,82.87
2023-01-30T09:18:47.760Z,82.80
2023-01-30T09:21:14.690Z,82.67
2023-01-30T09:23:41.560Z,82.53
2023-01-30T09:26:08.618Z,82.28
2023-01-30T09:28:35.772Z,79.93
2023-01-30T09:31:03.103Z,79.83
2023-01-30T09:33:30.356Z,78.81
2023-01-30T09:35:57.153Z,77.76
2023-01-30T09:38:23.748Z,77.59
2023-01-30T09:40:59.366Z,77.74
2023-01-30T09:44:13.245Z,77.95
2023-01-30T09:47:04.880Z,77.20
2023-01-30T09:49:53.164Z,77.38
2023-01-30T09:52:58.135Z,77.87
2023-01-30T09:55:30.188Z,77.60
2023-01-30T09:58:01.069Z,78.04
2023-01-30T10:00:30.393Z,77.86
2023-01-30T10:03:04.981Z,77.69
2023-01-30T10:05:37.190Z,77.06
2023-01-30T10:08:37.375Z,76.98
2023-01-30T10:11:21.893Z,76.61
2023-01-30T10:14:02.968Z,76.42
2023-01-30T10:17:07.964Z,76.45
2023-01-30T10:19:41.303Z,76.05
2023-01-30T10:22:48.460Z,76.23
2023-01-30T10:25:43.608Z,74.41
2023-01-30T10:28:19.307Z,74.80
2023-01-30T10:30:55.504Z,74.54
2023-01-30T10:33:30.807Z,74.16
2023-01-30T10:36:10.654Z,74.68
2023-01-30T10:38:53.683Z,74.61
2023-01-30T10:41:56.884Z,75.36
2023-01-30T10:44:24.437Z,75.29
2023-01-30T10:47:47.052Z,74.88
2023-01-30T10:50:43.939Z,74.63
2023-01-30T10:53:21.533Z,75.04
2023-01-30T10:55:59.459Z,74.65
2023-01-30T10:58:58.588Z,74.57
2023-01-30T11:01:40.008Z,73.76
2023-01-30T11:04:22.288Z,73.91
2023-01-30T11:06:49.629Z,73.80
2023-01-30T11:09:18.670Z,73.80
2023-01-30T11:11:54.638Z,73.81
2023-01-30T11:14:21.678Z,73.64
2023-01-30T11:16:51.628Z,72.24
2023-01-30T11:19:22.916Z,71.64
2023-01-30T11:22:00.439Z,72.25
2023-01-30T11:24:32.751Z,72.15
2023-01-30T11:27:21.868Z,72.43
2023-01-30T11:29:50.373Z,72.33
2023-01-30T11:32:26.228Z,72.60
2023-01-30T11:35:26.604Z,73.07
2023-01-30T11:37:53.661Z,72.88
2023-01-30T11:40:28.474Z,72.73
2023-01-30T11:43:12.795Z,72.93
2023-01-30T11:45:47.134Z,72.72
2023-01-30T11:48:33.314Z,72.53
2023-01-30T11:51:11.166Z,72.55
2023-01-30T11:53:54.524Z,72.77
2023-01-30T11:56:29.892Z,72.33
2023-01-30T11:59:03.010Z,70.74
2023-01-30T12:01:33.071Z,71.28
2023-01-30T12:04:00.627Z,71.34
2023-01-30T12:06:40.275Z,71.47
2023-01-30T12:09:34.905Z,71.99
2023-01-30T12:12:01.667Z,71.71
2023-01-30T12:14:49.481Z,71.70
2023-01-30T12:17:36.488Z,72.02
2023-01-30T12:20:17.934Z,71.51
2023-01-30T12:22:52.360Z,71.37
2023-01-30T12:25:35.792Z,71.96
2023-01-30T12:28:11.260Z,71.66
2023-01-30T12:30:50.575Z,71.33
2023-01-30T12:36:09.745Z,70.43
2023-01-30T12:39:06.607Z,70.23
2023-01-30T12:41:56.685Z,69.54
2023-01-30T12:44:52.488Z,69.71
2023-01-30T12:47:22.282Z,69.95
2023-01-30T12:50:00.710Z,70.02
2023-01-30T12:52:45.493Z,69.75
2023-01-30T12:55:30.685Z,69.33
2023-01-30T12:58:05.726Z,69.65
2023-01-30T13:00:38.154Z,69.51
2023-01-30T13:03:40.350Z,69.88
2023-01-30T13:06:39.432Z,69.40
2023-01-30T13:09:19.965Z,69.85
2023-01-30T13:12:04.569Z,69.06
2023-01-30T13:14:55.636Z,69.35
2023-01-30T13:17:31.291Z,69.50
2023-01-30T13:20:16.493Z,69.62
2023-01-30T13:22:57.913Z,69.40
2023-01-30T13:25:54.180Z,69.43
2023-01-30T13:28:26.135Z,69.34
2023-01-30T13:30:55.165Z,69.09
2023-01-30T13:33:30.745Z,68.78
2023-01-30T13:36:10.418Z,68.69
2023-01-30T13:38:43.214Z,68.70
2023-01-30T13:41:15.001Z,68.44
2023-01-30T13:43:47.818Z,68.39
2023-01-30T13:46:20.434Z,67.93
2023-01-30T13:48:55.722Z,68.42
2023-01-30T13:51:48.089Z,68.36
2023-01-30T13:54:17.643Z,68.15
2023-01-30T13:57:01.757Z,68.02
2023-01-30T13:59:37.405Z,68.16
2023-01-30T14:02:04.202Z,66.93
2023-01-30T14:04:47.001Z,67.86
2023-01-30T14:07:31.066Z,68.11
2023-01-30T14:10:09.847Z,67.90
2023-01-30T14:13:13.245Z,68.80
2023-01-30T14:15:52.728Z,68.62
2023-01-30T14:18:25.199Z,68.57
2023-01-30T14:21:22.678Z,68.92
2023-01-30T14:24:01.840Z,68.87
2023-01-30T14:26:56.242Z,68.96
2023-01-30T14:29:38.138Z,69.12
2023-01-30T14:32:38.735Z,68.99
2023-01-30T14:35:06.512Z,68.80
2023-01-30T14:37:39.027Z,69.12
2023-01-30T14:40:37.861Z,69.04
2023-01-30T14:43:15.713Z,68.55
2023-01-30T14:45:48.875Z,68.98
2023-01-30T14:48:27.911Z,69.02
2023-01-30T14:51:22.702Z,69.34
2023-01-30T14:53:56.376Z,69.10
2023-01-30T14:56:36.682Z,69.66
2023-01-30T14:59:07.676Z,69.69
2023-01-30T15:01:57.651Z,69.87
2023-01-30T15:04:45.941Z,69.19
2023-01-30T15:07:24.755Z,69.59
2023-01-30T15:10:01.176Z,69.62
2023-01-30T15:12:48.062Z,69.59
2023-01-30T15:15:32.736Z,69.57
2023-01-30T15:18:08.428Z,69.32
2023-01-30T15:20:47.381Z,69.65
2023-01-30T15:23:47.432Z,69.93
2023-01-30T15:26:47.529Z,70.25
2023-01-30T15:29:34.359Z,69.79
2023-01-30T15:32:03.669Z,69.96
2023-01-30T15:34:32.413Z,69.77
2023-01-30T15:36:59.076Z,69.99
2023-01-30T15:39:28.329Z,70.01
2023-01-30T15:42:05.262Z,70.07
2023-01-30T15:44:48.552Z,69.93
2023-01-30T15:47:15.117Z,70.10
2023-01-30T15:50:02.546Z,69.97
2023-01-30T15:52:40.623Z,69.82
2023-01-30T15:55:15.624Z,70.00
2023-01-30T15:57:47.865Z,70.51
2023-01-30T16:00:33.424Z,70.28
2023-01-30T16:03:04.790Z,70.31
2023-01-30T16:05:31.434Z,70.56
2023-01-30T16:08:09.439Z,70.15
2023-01-30T16:10:44.910Z,70.41
2023-01-30T16:13:11.588Z,70.84
2023-01-30T16:15:50.275Z,71.34
2023-01-30T16:18:32.291Z,70.93
2023-01-30T16:21:05.431Z,71.15
2023-01-30T16:23:37.476Z,71.67
2023-01-30T16:26:09.977Z,71.78
2023-01-30T16:28:36.737Z,72.04
2023-01-30T16:31:09.709Z,71.99
2023-01-30T16:33:37.460Z,72.34
2023-01-30T16:36:27.147Z,72.63
2023-01-30T16:38:55.273Z,72.74
2023-01-30T16:41:35.680Z,73.02
2023-01-30T16:44:17.556Z,73.42
2023-01-30T16:47:02.733Z,73.55
2023-01-30T16:49:39.355Z,73.82
2023-01-30T16:52:19.960Z,74.02
2023-01-30T16:54:54.965Z,73.82
2023-01-30T16:57:41.936Z,73.71
2023-01-30T17:00:23.014Z,73.57
2023-01-30T17:02:58.678Z,73.54
2023-01-30T17:05:42.874Z,73.01
2023-01-30T17:08:49.426Z,73.24
2023-01-30T17:11:31.613Z,73.17
2023-01-30T17:14:26.507Z,73.18
2023-01-30T17:17:15.688Z,73.22
2023-01-30T17:19:42.249Z,72.96
2023-01-30T17:22:20.641Z,73.09
2023-01-30T17:24:47.315Z,73.07
2023-01-30T17:27:15.138Z,75.92
2023-01-30T17:29:46.002Z,75.41
2023-01-30T17:32:15.390Z,75.45
2023-01-30T17:34:42.165Z,75.16
2023-01-30T17:37:17.566Z,75.01
2023-01-30T17:39:44.456Z,75.50
2023-01-30T17:42:12.349Z,75.53
2023-01-30T17:44:40.045Z,75.07
2023-01-30T17:47:09.262Z,75.52
2023-01-30T17:49:35.866Z,75.70
2023-01-30T17:52:02.439Z,75.80
2023-01-30T17:54:31.768Z,76.27
2023-01-30T17:57:04.342Z,76.56
2023-01-30T17:59:31.608Z,76.54
2023-01-30T18:01:59.185Z,76.86
2023-01-30T18:04:25.790Z,76.97
2023-01-30T18:07:04.002Z,77.43
2023-01-30T18:09:33.159Z,77.37
2023-01-30T18:11:59.812Z,77.10
2023-01-30T18:14:26.594Z,76.99
2023-01-30T18:17:00.143Z,77.15
2023-01-30T18:19:31.682Z,77.37
2023-01-30T18:22:00.795Z,77.68
2023-01-30T18:24:28.253Z,78.31
2023-01-30T18:26:54.840Z,78.49
2023-01-30T18:29:21.608Z,78.79
2023-01-30T18:31:50.837Z,78.82
2023-01-30T18:34:17.515Z,79.28
2023-01-30T18:36:44.117Z,79.91
2023-01-30T18:39:12.082Z,79.65
2023-01-30T18:41:41.138Z,80.15
2023-01-30T18:44:10.685Z,80.51
2023-01-30T18:46:39.829Z,80.31
2023-01-30T18:49:08.296Z,82.03
2023-01-30T18:51:37.041Z,82.09
2023-01-30T18:54:03.718Z,82.08
2023-01-30T18:56:33.187Z,81.71
2023-01-30T18:59:05.384Z,81.77
2023-01-30T19:01:35.745Z,81.70
2023-01-30T19:04:07.362Z,81.73
2023-01-30T19:06:37.436Z,81.80
2023-01-30T19:09:05.204Z,82.14
2023-01-30T19:11:50.397Z,81.65
2023-01-30T19:14:16.964Z,82.13
2023-01-30T19:16:43.752Z,81.74
2023-01-30T19:19:10.839Z,82.16
2023-01-30T19:21:37.593Z,82.14
2023-01-30T19:24:06.839Z,82.07
2023-01-30T19:26:34.482Z,82.21
2023-01-30T19:29:03.683Z,83.39
2023-01-30T19:31:30.379Z,83.08
2023-01-30T19:34:01.766Z,82.40
2023-01-30T19:36:31.776Z,82.15
2023-01-30T19:38:59.829Z,81.46
2023-01-30T19:41:29.320Z,81.34
2023-01-30T19:43:57.594Z,81.15
2023-01-30T19:46:24.534Z,81.28
2023-01-30T19:48:51.361Z,81.13
2023-01-30T19:51:21.193Z,81.38
2023-01-30T19:53:53.990Z,81.41
2023-01-30T19:56:22.502Z,81.38
2023-01-30T19:58:52.603Z,81.04
2023-01-30T20:01:21.377Z,80.73
2023-01-30T20:03:48.740Z,81.27
2023-01-30T20:06:23.018Z,81.00
2023-01-30T20:08:54.698Z,80.83
2023-01-30T20:11:24.307Z,80.81
2023-01-30T20:13:51.873Z,81.02
2023-01-30T20:16:22.857Z,81.01
2023-01-30T20:18:55.869Z,81.09
2023-01-30T20:21:23.901Z,81.32
2023-01-30T20:23:53.069Z,81.43
2023-01-30T20:26:23.498Z,81.51
2023-01-30T20:28:50.655Z,81.33
2023-01-30T20:31:20.672Z,82.46
2023-01-30T20:33:50.396Z,82.56
2023-01-30T20:36:21.762Z,81.95
2023-01-30T20:38:49.747Z,82.00
2023-01-30T20:41:19.093Z,81.61
2023-01-30T20:43:49.449Z,82.03
2023-01-30T20:46:25.338Z,81.74
2023-01-30T20:48:54.494Z,82.01
2023-01-30T20:51:24.847Z,81.82
2023-01-30T20:53:53.965Z,82.07
2023-01-30T20:56:21.938Z,81.76
2023-01-30T20:58:49.095Z,81.64
2023-01-30T21:01:21.484Z,81.96
2023-01-30T21:03:52.579Z,81.96
2023-01-30T21:06:41.753Z,82.17
2023-01-30T21:09:11.849Z,81.88
2023-01-30T21:11:39.033Z,81.73
2023-01-30T21:14:06.179Z,82.32
2023-01-30T21:16:34.008Z,82.05
2023-01-30T21:19:04.101Z,81.53
2023-01-30T21:21:39.203Z,81.97
2023-01-30T21:24:12.741Z,81.88
2023-01-30T21:26:46.038Z,82.06
2023-01-30T21:29:15.503Z,82.27
2023-01-30T21:31:44.538Z,81.98
2023-01-30T21:34:14.195Z,82.45
2023-01-30T21:37:02.997Z,82.13
2023-01-30T21:39:48.239Z,82.90
2023-01-30T21:42:33.150Z,82.54
2023-01-30T21:45:01.099Z,82.62
2023-01-30T21:47:27.698Z,82.42
2023-01-30T21:49:54.877Z,82.62
2023-01-30T21:52:21.456Z,82.67
2023-01-30T21:54:48.016Z,83.13
2023-01-30T21:57:14.596Z,82.45
2023-01-30T21:59:41.209Z,82.60
2023-01-30T22:02:09.703Z,82.68
2023-01-30T22:04:36.650Z,83.03
2023-01-30T22:07:05.751Z,83.32
2023-01-30T22:09:33.304Z,83.23
2023-01-30T22:11:59.820Z,83.60
2023-01-30T22:14:29.318Z,83.67
2023-01-30T22:16:55.914Z,84.05
2023-01-30T22:19:22.455Z,83.42
2023-01-30T22:21:51.620Z,83.77
2023-01-30T22:24:18.201Z,83.84
2023-01-30T22:26:44.829Z,83.59
2023-01-30T22:29:11.539Z,83.62
2023-01-30T22:31:40.459Z,84.09
2023-01-30T22:34:07.469Z,83.27
2023-01-30T22:36:35.316Z,84.26
2023-01-30T22:39:07.829Z,84.58
2023-01-30T22:41:38.702Z,84.48
2023-01-30T22:44:07.950Z,83.65
2023-01-30T22:46:39.721Z,84.34
2023-01-30T22:49:09.595Z,83.64
2023-01-30T22:51:39.464Z,84.17
2023-01-30T22:54:10.087Z,84.05
2023-01-30T22:56:40.687Z,84.14
2023-01-30T22:59:08.527Z,84.09
2023-01-30T23:01:40.717Z,84.00
2023-01-30T23:04:18.761Z,83.91
2023-01-30T23:06:46.369Z,83.74
2023-01-30T23:09:18.545Z,84.27
2023-01-30T23:12:12.890Z,83.87
2023-01-30T23:14:40.065Z,84.22
2023-01-30T23:17:26.564Z,84.88
2023-01-30T23:19:54.531Z,84.12
2023-01-30T23:22:21.534Z,83.79
2023-01-30T23:24:48.769Z,84.10
2023-01-30T23:27:15.471Z,84.18
2023-01-30T23:29:42.301Z,83.99
2023-01-30T23:32:08.945Z,84.38
2023-01-30T23:34:35.891Z,84.22
2023-01-30T23:37:02.700Z,84.60
2023-01-30T23:39:29.266Z,84.26
2023-01-30T23:41:55.863Z,84.92
2023-01-30T23:44:24.960Z,84.20
2023-01-30T23:46:51.676Z,84.22
2023-01-30T23:49:18.248Z,84.92
2023-01-30T23:51:45.251Z,84.94
2023-01-30T23:54:13.332Z,84.95
2023-01-30T23:56:42.503Z,85.80
2023-01-30T23:59:09.321Z,85.23
